Time;durP1;ratioP1;P1;durP2;ratioP2;P2;SDS_P1;SDS_P2;PMS_P1;PMS_P2;Temp;Humidity;BMP_temperature;BMP_pressure;BME280_temperature;BME280_humidity;BME280_pressure;Samples;Min_cycle;Max_cycle;Signal;HPM_P1;HPM_P2
2023/02/19 00:01:25;;;;;;;1.58;1.48;;;12.00;99.90;;;;;;5038402;28;20045;-82
2023/02/19 00:04:00;;;;;;;1.55;1.38;;;12.00;99.90;;;;;;5041334;28;20054;-82
2023/02/19 00:06:30;;;;;;;1.65;1.35;;;12.00;99.90;;;;;;5025636;28;20085;-82
2023/02/19 00:08:57;;;;;;;1.65;1.38;;;11.90;99.90;;;;;;5031074;28;20547;-82
2023/02/19 00:11:28;;;;;;;2.72;1.50;;;11.90;99.90;;;;;;5037314;28;20049;-80
2023/02/19 00:13:56;;;;;;;;;;;11.90;99.90;;;;;;5040323;28;20423;-80
2023/02/19 00:16:37;;;;;;;4.13;1.63;;;11.80;99.90;;;;;;5041524;28;19988;-82
2023/02/19 00:19:06;;;;;;;2.08;1.63;;;11.80;99.90;;;;;;5047258;28;20102;-83
2023/02/19 00:21:33;;;;;;;1.77;1.55;;;11.80;99.90;;;;;;5038059;28;20060;-82
2023/02/19 00:24:02;;;;;;;4.28;1.50;;;11.80;99.90;;;;;;5033748;28;20085;-82
2023/02/19 00:26:29;;;;;;;1.85;1.58;;;11.80;99.90;;;;;;5039423;28;20053;-82
2023/02/19 00:28:57;;;;;;;3.33;1.60;;;11.70;99.90;;;;;;5042492;28;20412;-83
2023/02/19 00:31:26;;;;;;;2.47;1.70;;;11.70;99.90;;;;;;5036965;28;20063;-81
2023/02/19 00:33:55;;;;;;;1.70;1.60;;;11.70;99.90;;;;;;5027930;28;20058;-83
2023/02/19 00:36:23;;;;;;;2.92;1.80;;;11.60;99.90;;;;;;5032102;28;20048;-83
2023/02/19 00:38:51;;;;;;;2.97;1.63;;;11.60;99.90;;;;;;5034413;28;20045;-83
2023/02/19 00:41:19;;;;;;;3.88;1.80;;;11.60;99.90;;;;;;5041307;28;20075;-82
2023/02/19 00:43:51;;;;;;;2.20;1.40;;;11.60;99.90;;;;;;5040518;28;20072;-82
2023/02/19 00:46:21;;;;;;;2.75;2.17;;;11.60;99.90;;;;;;5037455;28;20050;-81
2023/02/19 00:48:48;;;;;;;2.53;1.92;;;11.50;99.90;;;;;;5027302;28;20049;-81
2023/02/19 00:51:15;;;;;;;3.45;1.92;;;11.50;99.90;;;;;;5031413;28;20049;-81
2023/02/19 00:53:42;;;;;;;3.30;1.90;;;11.50;99.90;;;;;;5030397;28;20048;-82
2023/02/19 00:56:08;;;;;;;2.00;1.70;;;11.40;99.90;;;;;;5031788;28;20049;-82
2023/02/19 00:58:35;;;;;;;1.60;1.50;;;11.40;99.90;;;;;;5036855;28;20502;-82
2023/02/19 01:01:05;;;;;;;1.92;1.50;;;11.30;99.90;;;;;;5040845;28;20113;-81
2023/02/19 01:03:33;;;;;;;2.50;1.92;;;11.40;99.90;;;;;;5029332;28;20436;-82
2023/02/19 01:06:00;;;;;;;2.65;1.50;;;11.30;99.90;;;;;;5031093;28;20054;-82
2023/02/19 01:08:26;;;;;;;2.28;1.80;;;11.30;99.90;;;;;;5032216;28;20049;-82
2023/02/19 01:10:53;;;;;;;1.75;1.50;;;11.30;99.90;;;;;;5038794;28;20117;-84
2023/02/19 01:13:20;;;;;;;2.08;1.75;;;11.20;99.90;;;;;;5032434;28;20411;-82
2023/02/19 01:15:46;;;;;;;3.33;1.45;;;11.10;99.90;;;;;;5035010;28;20485;-82
2023/02/19 01:18:13;;;;;;;1.65;1.50;;;11.10;99.90;;;;;;5025745;28;20154;-83
2023/02/19 01:20:42;;;;;;;1.95;1.60;;;11.00;99.90;;;;;;5029252;28;20429;-82
2023/02/19 01:23:12;;;;;;;2.50;1.80;;;11.10;99.90;;;;;;5034017;28;20116;-81
2023/02/19 01:25:42;;;;;;;;;;;11.10;99.90;;;;;;5038129;28;20053;-81
2023/02/19 01:28:10;;;;;;;1.77;1.42;;;11.10;99.90;;;;;;5041254;28;19921;-83
2023/02/19 01:30:38;;;;;;;4.45;1.80;;;11.10;99.90;;;;;;5024547;28;20053;-81
2023/02/19 01:33:06;;;;;;;2.08;1.40;;;11.10;99.90;;;;;;5027911;28;20511;-81
2023/02/19 01:35:36;;;;;;;1.85;1.58;;;11.00;99.90;;;;;;5031821;28;20046;-82
2023/02/19 01:38:03;;;;;;;2.85;2.00;;;11.10;99.90;;;;;;5033931;28;20049;-82
2023/02/19 01:40:29;;;;;;;3.85;1.60;;;11.10;99.90;;;;;;5034674;28;20050;-83
2023/02/19 01:42:56;;;;;;;1.70;1.45;;;11.10;99.90;;;;;;5042139;28;20259;-81
2023/02/19 01:45:29;;;;;;;2.22;1.80;;;11.10;99.90;;;;;;5028334;28;20085;-82
2023/02/19 01:48:16;;;;;;;3.30;1.50;;;11.10;99.90;;;;;;5029504;28;20057;-82
2023/02/19 01:50:51;;;;;;;2.42;1.58;;;11.20;99.90;;;;;;5029741;28;20105;-83
2023/02/19 01:53:23;;;;;;;2.20;1.58;;;11.10;99.90;;;;;;5034524;28;20060;-82
2023/02/19 01:55:55;;;;;;;2.45;1.73;;;11.10;99.90;;;;;;5032974;28;20506;-80
2023/02/19 01:58:25;;;;;;;1.23;1.13;;;11.10;99.90;;;;;;5029272;28;20056;-83
2023/02/19 02:00:51;;;;;;;2.58;1.63;;;11.10;99.90;;;;;;5025217;28;20057;-83
2023/02/19 02:03:19;;;;;;;1.73;1.33;;;11.10;99.90;;;;;;5029347;28;20062;-81
2023/02/19 02:05:55;;;;;;;2.17;1.58;;;11.20;99.90;;;;;;5031861;28;20053;-81
2023/02/19 02:11:08;;;;;;;1.83;1.67;;;11.10;99.90;;;;;;5040118;28;20061;-82
2023/02/19 02:13:37;;;;;;;1.75;1.63;;;11.20;99.90;;;;;;5018898;28;20445;-81
2023/02/19 02:16:22;;;;;;;2.58;1.50;;;11.10;99.90;;;;;;5025188;28;20057;-82
2023/02/19 02:19:08;;;;;;;1.98;1.48;;;11.10;99.90;;;;;;5029352;28;20148;-82
2023/02/19 02:22:04;;;;;;;2.63;1.83;;;11.10;99.90;;;;;;5031584;28;20405;-80
2023/02/19 02:24:49;;;;;;;2.00;1.80;;;11.20;99.90;;;;;;5026456;28;20132;-81
2023/02/19 02:27:30;;;;;;;2.78;1.30;;;11.20;99.90;;;;;;5027272;28;20061;-82
2023/02/19 02:30:06;;;;;;;2.15;1.40;;;11.20;99.90;;;;;;5026113;28;20050;-81
2023/02/19 02:32:59;;;;;;;4.00;1.48;;;11.20;99.90;;;;;;5035268;28;20075;-83
2023/02/19 02:35:33;;;;;;;1.63;1.50;;;11.20;99.90;;;;;;5031877;28;20056;-82
2023/02/19 02:38:03;;;;;;;2.85;1.60;;;11.20;99.90;;;;;;5039950;28;20098;-82
2023/02/19 02:40:30;;;;;;;2.30;1.50;;;11.10;99.90;;;;;;5029318;28;20509;-81
2023/02/19 02:42:58;;;;;;;2.15;1.30;;;11.20;99.90;;;;;;5024367;28;20138;-82
2023/02/19 02:45:36;;;;;;;1.92;1.70;;;11.20;99.90;;;;;;5028399;28;20056;-82
2023/02/19 02:48:34;;;;;;;1.70;1.23;;;11.20;99.90;;;;;;5027735;28;20077;-83
2023/02/19 02:51:21;;;;;;;1.73;1.55;;;11.20;99.90;;;;;;5031681;28;20050;-81
2023/02/19 02:56:40;;;;;;;2.13;1.40;;;11.10;99.90;;;;;;5025004;28;20072;-81
2023/02/19 02:59:09;;;;;;;1.52;1.38;;;11.10;99.90;;;;;;5024389;28;20488;-81
2023/02/19 03:04:34;;;;;;;1.67;1.35;;;11.00;99.90;;;;;;5036841;28;20081;-81
2023/02/19 03:07:06;;;;;;;1.63;1.45;;;11.00;99.90;;;;;;5039213;28;20172;-81
2023/02/19 03:09:39;;;;;;;1.95;1.30;;;11.10;99.90;;;;;;5025491;28;20085;-83
2023/02/19 03:20:43;;;;;;;1.48;1.30;;;11.00;99.90;;;;;;5042505;28;19928;-82
2023/02/19 03:23:11;;;;;;;1.65;1.35;;;11.00;99.90;;;;;;5031945;28;20056;-80
2023/02/19 03:31:19;;;;;;;1.40;1.30;;;10.90;99.90;;;;;;5024283;28;20049;-82
2023/02/19 03:33:50;;;;;;;1.92;1.58;;;10.90;99.90;;;;;;5036458;28;20046;-82
2023/02/19 03:36:24;;;;;;;2.30;1.60;;;10.90;99.90;;;;;;5042840;28;20069;-82
2023/02/19 03:38:58;;;;;;;1.70;1.52;;;10.90;99.90;;;;;;5027642;28;20042;-80
2023/02/19 03:41:40;;;;;;;2.85;1.40;;;10.90;99.90;;;;;;5033439;28;20050;-82
2023/02/19 03:44:24;;;;;;;1.90;1.33;;;10.80;99.90;;;;;;5032709;28;20501;-80
2023/02/19 03:47:02;;;;;;;1.50;1.40;;;10.80;99.90;;;;;;5037708;28;20041;-80
2023/02/19 03:49:47;;;;;;;1.70;1.55;;;10.80;99.90;;;;;;5036511;28;20063;-82
2023/02/19 03:52:40;;;;;;;1.60;1.50;;;10.80;99.90;;;;;;5034258;28;20046;-81
2023/02/19 03:55:16;;;;;;;2.53;1.75;;;10.80;99.90;;;;;;5028048;28;20065;-81
2023/02/19 03:58:01;;;;;;;2.70;2.38;;;10.70;99.90;;;;;;5029897;28;20132;-82
2023/02/19 04:00:49;;;;;;;2.28;1.63;;;10.70;99.90;;;;;;5035387;28;20046;-82
2023/02/19 04:03:41;;;;;;;2.83;1.90;;;10.70;99.90;;;;;;5042478;28;20073;-82
2023/02/19 04:06:24;;;;;;;2.28;1.45;;;10.70;99.90;;;;;;5029453;28;20064;-81
2023/02/19 04:08:54;;;;;;;1.33;1.23;;;10.70;99.90;;;;;;5026644;28;20149;-82
2023/02/19 04:11:21;;;;;;;1.73;1.50;;;10.70;99.90;;;;;;5031069;28;20056;-82
2023/02/19 04:14:06;;;;;;;1.90;1.67;;;10.70;99.90;;;;;;5033213;28;20046;-80
2023/02/19 04:16:35;;;;;;;2.53;2.13;;;10.70;99.90;;;;;;5036434;28;20485;-82
2023/02/19 04:19:07;;;;;;;3.78;1.40;;;10.70;99.90;;;;;;5029563;28;20042;-82
2023/02/19 04:21:36;;;;;;;3.35;1.70;;;10.70;99.90;;;;;;5029198;28;20507;-82
2023/02/19 04:24:13;;;;;;;1.92;1.40;;;10.70;99.90;;;;;;5034868;28;20056;-83
2023/02/19 04:26:41;;;;;;;3.60;1.95;;;10.70;99.90;;;;;;5033144;28;20050;-81
2023/02/19 04:29:08;;;;;;;3.47;1.63;;;10.70;99.90;;;;;;5037489;28;20172;-82
2023/02/19 04:31:36;;;;;;;2.25;1.50;;;10.70;99.90;;;;;;5036684;28;20045;-82
2023/02/19 04:34:03;;;;;;;2.83;1.67;;;10.70;99.90;;;;;;5030564;28;20050;-81
2023/02/19 04:36:31;;;;;;;2.85;2.08;;;10.70;99.90;;;;;;5026397;28;20052;-83
2023/02/19 04:38:57;;;;;;;2.13;1.80;;;10.70;99.90;;;;;;5033074;28;20052;-82
2023/02/19 04:41:24;;;;;;;3.22;1.60;;;10.60;99.90;;;;;;5033470;28;20053;-81
2023/02/19 04:43:51;;;;;;;2.65;1.60;;;10.60;99.90;;;;;;5036821;28;20041;-82
2023/02/19 04:46:17;;;;;;;2.10;1.75;;;10.60;99.90;;;;;;5042940;28;20702;-80
2023/02/19 04:48:44;;;;;;;1.38;1.27;;;10.60;99.90;;;;;;5027597;28;20050;-81
2023/02/19 04:51:11;;;;;;;2.00;1.73;;;10.60;99.90;;;;;;5025426;28;20046;-80
2023/02/19 04:53:38;;;;;;;2.72;1.80;;;10.60;99.90;;;;;;5029024;28;20053;-82
2023/02/19 04:56:10;;;;;;;1.83;1.45;;;10.60;99.90;;;;;;5038217;28;20048;-82
2023/02/19 04:58:38;;;;;;;2.28;1.77;;;10.60;99.90;;;;;;5033224;28;20050;-82
2023/02/19 05:01:05;;;;;;;1.67;1.50;;;10.50;99.90;;;;;;5037842;28;20046;-82
2023/02/19 05:03:34;;;;;;;1.65;1.50;;;10.60;99.90;;;;;;5027796;28;20052;-82
2023/02/19 05:06:06;;;;;;;4.68;2.60;;;10.60;99.90;;;;;;5032152;28;20101;-82
2023/02/19 05:08:33;;;;;;;2.33;1.50;;;10.50;99.90;;;;;;5034872;28;20101;-81
2023/02/19 05:11:02;;;;;;;3.75;1.90;;;10.60;99.90;;;;;;5038891;28;20045;-80
2023/02/19 05:13:29;;;;;;;1.88;1.50;;;10.60;99.90;;;;;;5040996;28;20114;-82
2023/02/19 05:16:01;;;;;;;1.45;1.20;;;10.60;99.90;;;;;;5044243;28;20541;-80
2023/02/19 05:18:30;;;;;;;3.45;1.27;;;10.60;99.90;;;;;;5044934;28;20064;-83
2023/02/19 05:20:58;;;;;;;1.77;1.63;;;10.60;99.90;;;;;;5043941;28;20120;-81
2023/02/19 05:23:25;;;;;;;2.30;1.90;;;10.60;99.90;;;;;;5033385;28;20132;-82
2023/02/19 05:25:52;;;;;;;2.25;1.75;;;10.60;99.90;;;;;;5032481;28;20484;-82
2023/02/19 05:28:19;;;;;;;3.88;1.60;;;10.60;99.90;;;;;;5037426;28;20164;-81
2023/02/19 05:30:48;;;;;;;1.73;1.40;;;10.60;99.90;;;;;;5025068;28;20117;-81
2023/02/19 05:33:16;;;;;;;1.92;1.48;;;10.60;99.90;;;;;;5029932;28;20045;-82
2023/02/19 05:35:44;;;;;;;2.05;1.80;;;10.60;99.90;;;;;;5028750;28;20046;-82
2023/02/19 05:38:11;;;;;;;3.08;1.50;;;10.60;99.90;;;;;;5030912;28;20042;-81
2023/02/19 05:40:38;;;;;;;2.85;1.63;;;10.70;99.90;;;;;;5033061;28;20136;-83
2023/02/19 05:43:06;;;;;;;5.07;1.80;;;10.70;99.90;;;;;;5033290;28;20057;-81
2023/02/19 05:45:33;;;;;;;2.70;1.80;;;10.70;99.90;;;;;;5020937;28;20046;-82
2023/02/19 05:48:01;;;;;;;1.70;1.60;;;10.70;99.90;;;;;;5026387;28;20061;-81
2023/02/19 05:50:28;;;;;;;3.78;1.80;;;10.70;99.90;;;;;;5026840;28;20050;-82
2023/02/19 05:52:55;;;;;;;3.75;1.73;;;10.70;99.90;;;;;;5032781;28;20423;-80
2023/02/19 05:55:22;;;;;;;2.35;1.90;;;10.60;99.90;;;;;;5036913;28;20046;-81
2023/02/19 05:57:49;;;;;;;2.35;1.88;;;10.60;99.90;;;;;;5027091;28;20074;-81
2023/02/19 06:00:18;;;;;;;3.55;1.77;;;10.60;99.90;;;;;;5021360;28;20057;-81
2023/02/19 06:02:45;;;;;;;1.67;1.58;;;10.60;99.90;;;;;;5027000;28;20046;-82
2023/02/19 06:05:12;;;;;;;1.83;1.63;;;10.60;99.90;;;;;;5032468;28;20068;-82
2023/02/19 06:07:40;;;;;;;5.15;2.00;;;10.50;99.90;;;;;;5030943;28;20045;-81
2023/02/19 06:10:08;;;;;;;4.15;1.77;;;10.50;99.90;;;;;;5052529;28;20041;-81
2023/02/19 06:12:35;;;;;;;4.07;2.00;;;10.50;99.90;;;;;;5029219;28;20520;-81
2023/02/19 06:15:03;;;;;;;1.48;1.38;;;10.50;99.90;;;;;;5039914;28;20501;-80
2023/02/19 06:17:30;;;;;;;2.50;1.98;;;10.50;99.90;;;;;;5028913;28;20076;-80
2023/02/19 06:19:57;;;;;;;1.90;1.60;;;10.50;99.90;;;;;;5030955;28;20053;-81
2023/02/19 06:22:24;;;;;;;1.67;1.55;;;10.40;99.90;;;;;;5035606;28;20041;-82
2023/02/19 06:24:50;;;;;;;2.67;1.90;;;10.40;99.90;;;;;;5031826;28;20097;-82
2023/02/19 06:27:18;;;;;;;2.03;1.65;;;10.40;99.90;;;;;;5026325;28;20456;-82
2023/02/19 06:29:44;;;;;;;2.50;2.10;;;10.40;99.90;;;;;;5027218;28;20081;-81
2023/02/19 06:32:11;;;;;;;3.88;2.28;;;10.40;99.90;;;;;;5031572;28;20474;-82
2023/02/19 06:34:38;;;;;;;3.72;1.80;;;10.40;99.90;;;;;;5032448;28;20117;-81
2023/02/19 06:37:04;;;;;;;5.07;1.83;;;10.40;99.90;;;;;;5036783;28;20041;-82
2023/02/19 06:39:31;;;;;;;2.97;2.05;;;10.40;99.90;;;;;;5033156;28;20045;-81
2023/02/19 06:41:58;;;;;;;3.97;1.67;;;10.40;99.90;;;;;;5018219;28;20047;-81
2023/02/19 06:44:24;;;;;;;3.75;2.88;;;10.40;99.90;;;;;;5020704;28;20050;-80
2023/02/19 06:46:54;;;;;;;3.00;1.70;;;10.30;99.90;;;;;;5027732;28;20059;-81
2023/02/19 06:49:21;;;;;;;2.13;1.67;;;10.40;99.90;;;;;;5031375;28;20475;-83
2023/02/19 06:51:48;;;;;;;1.67;1.42;;;10.40;99.90;;;;;;5032379;28;20049;-80
2023/02/19 06:54:14;;;;;;;2.95;1.70;;;10.40;99.90;;;;;;5030412;28;20663;-82
2023/02/19 06:56:41;;;;;;;2.67;1.85;;;10.40;99.90;;;;;;5023323;28;20057;-81
2023/02/19 06:59:13;;;;;;;2.45;1.85;;;10.40;99.90;;;;;;5025997;28;20463;-81
2023/02/19 07:01:39;;;;;;;3.05;1.65;;;10.30;99.90;;;;;;5046458;28;20045;-81
2023/02/19 07:04:06;;;;;;;2.85;1.65;;;10.30;99.90;;;;;;5034071;28;20056;-82
2023/02/19 07:06:34;;;;;;;3.28;1.48;;;10.30;99.90;;;;;;5029790;28;20041;-82
2023/02/19 07:09:03;;;;;;;3.95;2.08;;;10.30;99.90;;;;;;5039016;28;20073;-81
2023/02/19 07:11:31;;;;;;;4.00;1.95;;;10.30;99.90;;;;;;5022593;28;20048;-82
2023/02/19 07:14:01;;;;;;;2.17;1.60;;;10.30;99.90;;;;;;5028442;28;20048;-81
2023/02/19 07:16:27;;;;;;;2.38;1.83;;;10.30;99.90;;;;;;5029196;28;20045;-82
2023/02/19 07:18:58;;;;;;;2.65;1.30;;;10.40;99.90;;;;;;5032768;28;20041;-80
2023/02/19 07:21:26;;;;;;;1.50;1.25;;;10.40;99.90;;;;;;5036976;28;20053;-81
2023/02/19 07:23:53;;;;;;;2.05;1.67;;;10.30;99.90;;;;;;5023093;28;20081;-82
2023/02/19 07:26:20;;;;;;;1.80;1.70;;;10.30;99.90;;;;;;5028314;28;20053;-81
2023/02/19 07:28:49;;;;;;;2.45;1.60;;;10.30;99.90;;;;;;5049795;28;20058;-82
2023/02/19 07:31:18;;;;;;;3.03;2.08;;;10.30;99.90;;;;;;5034085;28;20073;-81
2023/02/19 07:33:46;;;;;;;3.88;2.15;;;10.40;99.90;;;;;;5029126;28;20045;-81
2023/02/19 07:36:15;;;;;;;2.72;2.13;;;10.40;99.90;;;;;;5038196;28;20499;-82
2023/02/19 07:38:42;;;;;;;2.53;1.85;;;10.40;99.90;;;;;;5024935;28;20125;-81
2023/02/19 07:41:09;;;;;;;2.47;1.60;;;10.40;99.90;;;;;;5028097;28;20048;-81
2023/02/19 07:43:38;;;;;;;2.47;1.48;;;10.40;99.90;;;;;;5031833;28;20544;-81
2023/02/19 07:46:10;;;;;;;2.03;1.58;;;10.40;99.90;;;;;;5036588;28;20050;-80
2023/02/19 07:48:39;;;;;;;2.17;1.70;;;10.40;99.90;;;;;;5036004;28;20147;-81
2023/02/19 07:51:09;;;;;;;2.05;1.45;;;10.50;99.90;;;;;;5031525;28;20054;-83
2023/02/19 07:53:36;;;;;;;2.38;1.35;;;10.50;99.90;;;;;;5025607;28;20056;-82
2023/02/19 07:56:05;;;;;;;4.45;1.83;;;10.60;99.90;;;;;;5034034;28;20044;-83
2023/02/19 07:58:33;;;;;;;2.97;2.33;;;10.60;99.90;;;;;;5038703;28;20038;-81
2023/02/19 08:01:12;;;;;;;1.23;1.13;;;10.60;99.90;;;;;;5031668;28;20065;-82
2023/02/19 08:03:39;;;;;;;2.25;1.65;;;10.70;99.90;;;;;;5033518;28;20049;-80
2023/02/19 08:06:07;;;;;;;1.50;1.30;;;10.70;99.90;;;;;;5024133;28;20046;-82
2023/02/19 08:08:33;;;;;;;2.63;1.48;;;10.80;99.90;;;;;;5028808;28;20052;-81
2023/02/19 08:13:51;;;;;;;1.20;1.00;;;10.80;99.90;;;;;;5034473;28;20189;-82
2023/02/19 08:16:18;;;;;;;;;;;10.90;99.90;;;;;;5033880;28;20042;-82
2023/02/19 08:18:55;;;;;;;1.95;1.10;;;11.00;99.90;;;;;;5024370;28;19922;-82
2023/02/19 08:21:23;;;;;;;1.92;1.25;;;11.00;99.90;;;;;;5021105;28;20074;-79
2023/02/19 08:23:50;;;;;;;1.10;1.00;;;11.10;99.90;;;;;;5028745;28;20045;-84
2023/02/19 08:26:17;;;;;;;1.50;1.20;;;11.10;99.90;;;;;;5029920;28;20069;-83
2023/02/19 08:28:44;;;;;;;1.33;1.05;;;11.20;99.90;;;;;;5032381;28;20107;-83
2023/02/19 08:31:11;;;;;;;1.10;1.00;;;11.20;99.90;;;;;;5029204;28;20156;-83
2023/02/19 08:33:39;;;;;;;1.00;0.90;;;11.20;99.90;;;;;;5023856;28;20541;-82
2023/02/19 08:36:07;;;;;;;1.00;0.88;;;11.30;99.90;;;;;;5024017;28;20129;-82
2023/02/19 08:38:35;;;;;;;0.80;0.80;;;11.30;99.90;;;;;;5021410;28;20132;-82
2023/02/19 08:41:10;;;;;;;1.75;1.20;;;11.30;99.90;;;;;;5025217;28;20416;-82
2023/02/19 08:43:41;;;;;;;1.20;1.10;;;11.40;99.90;;;;;;5034051;28;20137;-81
2023/02/19 08:46:08;;;;;;;;;;;11.40;99.90;;;;;;5039710;28;20048;-82
2023/02/19 08:48:36;;;;;;;1.65;1.17;;;11.40;99.90;;;;;;5026161;28;19944;-81
2023/02/19 08:51:07;;;;;;;1.75;1.10;;;11.40;99.90;;;;;;5028670;28;20048;-82
2023/02/19 08:53:35;;;;;;;0.80;0.70;;;11.40;99.90;;;;;;5031463;28;20069;-82
2023/02/19 08:56:13;;;;;;;1.00;0.90;;;11.40;99.90;;;;;;5036783;28;20048;-80
2023/02/19 08:58:40;;;;;;;0.75;0.70;;;11.40;99.90;;;;;;5036029;28;20076;-81
2023/02/19 09:01:09;;;;;;;1.85;1.67;;;11.50;99.90;;;;;;5033213;28;20049;-80
2023/02/19 09:03:36;;;;;;;2.40;1.90;;;11.50;99.90;;;;;;5022896;28;20532;-82
2023/02/19 09:06:03;;;;;;;1.60;1.13;;;11.60;99.90;;;;;;5029227;28;20096;-81
2023/02/19 09:08:30;;;;;;;4.18;2.45;;;11.60;99.90;;;;;;5032061;28;20068;-82
2023/02/19 09:11:02;;;;;;;0.82;0.82;;;11.60;99.90;;;;;;5034496;28;20042;-81
2023/02/19 09:13:29;;;;;;;1.65;0.85;;;11.60;99.90;;;;;;5036162;28;20115;-82
2023/02/19 09:15:56;;;;;;;0.98;0.80;;;11.70;99.90;;;;;;5027877;28;20046;-82
2023/02/19 09:18:23;;;;;;;1.42;1.20;;;11.70;99.90;;;;;;5024293;28;20046;-82
2023/02/19 09:20:50;;;;;;;2.00;1.40;;;11.70;99.90;;;;;;5029333;28;20057;-83
2023/02/19 09:23:17;;;;;;;1.15;1.00;;;11.70;99.90;;;;;;5035364;28;20398;-80
2023/02/19 09:25:44;;;;;;;1.02;0.70;;;11.80;99.90;;;;;;5033784;28;20045;-80
2023/02/19 09:28:10;;;;;;;1.92;0.90;;;11.80;99.90;;;;;;5038264;28;20056;-80
2023/02/19 09:30:37;;;;;;;2.17;0.80;;;11.80;99.90;;;;;;5025617;28;20424;-81
2023/02/19 09:33:04;;;;;;;1.70;0.52;;;11.80;99.90;;;;;;5027635;28;20459;-82
2023/02/19 09:35:31;;;;;;;1.40;0.80;;;11.80;99.90;;;;;;5030406;28;20038;-81
2023/02/19 09:38:00;;;;;;;1.55;1.10;;;11.90;99.90;;;;;;5036039;28;20050;-80
2023/02/19 09:40:29;;;;;;;0.85;0.63;;;11.90;99.90;;;;;;5039498;28;20460;-83
2023/02/19 09:42:56;;;;;;;1.08;0.60;;;11.90;99.90;;;;;;5036205;28;20137;-80
2023/02/19 09:45:25;;;;;;;0.60;0.57;;;11.90;99.90;;;;;;5021465;28;20109;-80
2023/02/19 09:47:56;;;;;;;0.60;0.60;;;11.90;99.90;;;;;;5028141;28;20077;-81
2023/02/19 09:50:33;;;;;;;1.15;0.80;;;11.90;99.90;;;;;;5046491;28;20171;-80
2023/02/19 09:53:03;;;;;;;1.67;0.60;;;11.90;99.90;;;;;;5047396;28;20065;-81
2023/02/19 09:55:41;;;;;;;3.25;1.00;;;11.90;99.90;;;;;;5040324;28;20132;-81
2023/02/19 09:58:20;;;;;;;0.68;0.68;;;12.00;99.90;;;;;;5024531;28;20042;-82
2023/02/19 10:00:49;;;;;;;1.38;0.90;;;12.00;99.90;;;;;;5027494;28;20524;-81
2023/02/19 10:03:29;;;;;;;2.83;0.80;;;12.10;99.90;;;;;;5028797;28;20137;-81
2023/02/19 10:05:58;;;;;;;1.13;0.70;;;12.10;99.90;;;;;;5043492;28;20050;-81
2023/02/19 10:08:25;;;;;;;1.35;0.88;;;12.10;99.90;;;;;;5045948;28;20137;-80
2023/02/19 10:10:53;;;;;;;1.10;0.73;;;12.10;99.90;;;;;;5045355;28;20048;-81
2023/02/19 10:13:29;;;;;;;1.08;0.98;;;12.10;99.90;;;;;;5048387;28;20035;-81
2023/02/19 10:15:59;;;;;;;0.85;0.70;;;12.10;99.90;;;;;;5032533;28;20064;-80
2023/02/19 10:18:32;;;;;;;1.10;0.80;;;12.20;99.90;;;;;;5034558;28;20049;-80
2023/02/19 10:20:59;;;;;;;0.75;0.70;;;12.20;99.90;;;;;;5036484;28;20059;-80
2023/02/19 10:23:26;;;;;;;1.75;0.55;;;12.30;99.90;;;;;;5039898;28;20050;-80
2023/02/19 10:25:56;;;;;;;1.23;0.68;;;12.30;99.90;;;;;;5029442;28;20080;-80
2023/02/19 10:28:32;;;;;;;3.08;0.80;;;12.30;99.90;;;;;;5021488;28;20042;-80
2023/02/19 10:31:01;;;;;;;1.15;0.77;;;12.30;99.90;;;;;;5029601;28;20049;-82
2023/02/19 10:34:23;;;;;;;0.70;0.70;;;12.30;99.90;;;;;;5029590;28;20520;-81
2023/02/19 10:36:51;;;;;;;1.58;0.95;;;12.10;99.90;;;;;;4988058;28;20106;-82
2023/02/19 10:39:20;;;;;;;2.15;0.73;;;12.00;99.90;;;;;;5021578;28;20052;-80
2023/02/19 10:41:50;;;;;;;1.43;0.80;;;11.90;99.90;;;;;;5021985;28;20056;-80
2023/02/19 10:44:22;;;;;;;1.90;0.98;;;11.90;99.90;;;;;;5025456;28;20058;-80
2023/02/19 10:46:54;;;;;;;1.55;1.10;;;11.80;99.90;;;;;;5026456;28;20077;-81
2023/02/19 10:49:20;;;;;;;2.03;0.70;;;11.80;99.90;;;;;;5031453;28;20041;-81
2023/02/19 10:51:47;;;;;;;3.15;1.08;;;11.80;99.90;;;;;;5026196;28;20136;-80
2023/02/19 10:54:30;;;;;;;1.30;1.10;;;11.80;99.90;;;;;;5023236;28;20045;-82
2023/02/19 10:57:15;;;;;;;2.15;1.00;;;11.90;99.90;;;;;;5021619;28;20054;-81
2023/02/19 11:00:00;;;;;;;1.67;1.17;;;11.90;99.90;;;;;;5024285;28;20128;-81
2023/02/19 11:02:29;;;;;;;2.47;1.30;;;11.90;99.90;;;;;;5030658;28;20060;-80
2023/02/19 11:05:08;;;;;;;4.05;1.35;;;11.90;99.90;;;;;;5031866;28;20078;-82
2023/02/19 11:07:36;;;;;;;4.70;1.10;;;11.90;99.90;;;;;;5030608;28;20057;-82
2023/02/19 11:10:05;;;;;;;2.50;1.20;;;11.90;99.90;;;;;;5012341;28;20045;-82
2023/02/19 11:12:33;;;;;;;2.90;1.38;;;11.80;99.90;;;;;;5018829;28;20432;-82
2023/02/19 11:15:20;;;;;;;1.00;0.85;;;11.90;99.90;;;;;;5022349;28;20046;-81
2023/02/19 11:18:12;;;;;;;3.47;1.50;;;11.90;99.90;;;;;;5022977;28;20046;-81
2023/02/19 11:20:56;;;;;;;1.95;1.35;;;12.10;99.90;;;;;;5029254;28;20103;-82
2023/02/19 11:23:27;;;;;;;2.03;1.40;;;12.20;99.90;;;;;;5032365;28;20046;-80
2023/02/19 11:25:56;;;;;;;2.03;1.30;;;12.30;99.90;;;;;;5022914;28;20057;-80
2023/02/19 11:28:34;;;;;;;2.03;1.42;;;12.50;99.90;;;;;;5014820;28;20052;-82
2023/02/19 11:31:24;;;;;;;2.90;1.35;;;12.60;99.90;;;;;;5021192;28;20046;-82
2023/02/19 11:33:57;;;;;;;4.03;1.58;;;12.70;99.90;;;;;;5022963;28;20069;-82
2023/02/19 11:36:24;;;;;;;2.40;1.38;;;12.80;99.90;;;;;;5022144;28;20046;-82
2023/02/19 11:38:51;;;;;;;1.95;1.50;;;12.90;99.90;;;;;;5019804;28;20045;-81
2023/02/19 11:41:41;;;;;;;2.35;1.52;;;12.90;99.90;;;;;;5022830;28;20044;-83
2023/02/19 11:44:31;;;;;;;2.40;1.40;;;12.90;99.90;;;;;;5020161;28;20060;-83
2023/02/19 11:47:55;;;;;;;2.07;1.63;;;13.00;99.90;;;;;;5022415;28;20053;-81
2023/02/19 11:50:29;;;;;;;4.20;1.92;;;12.90;99.90;;;;;;4980471;28;20049;-81
2023/02/19 11:52:55;;;;;;;1.95;1.50;;;12.80;99.90;;;;;;4964688;28;20414;-83
2023/02/19 11:55:31;;;;;;;3.80;1.48;;;12.90;99.90;;;;;;4999293;28;20056;-83
2023/02/19 11:58:29;;;;;;;2.63;1.50;;;12.90;99.90;;;;;;5023555;28;20116;-83
2023/02/19 12:01:15;;;;;;;2.17;1.60;;;12.90;99.90;;;;;;5017111;28;20056;-82
2023/02/19 12:04:19;;;;;;;2.38;1.65;;;12.80;99.90;;;;;;5022020;28;20144;-79
2023/02/19 12:07:11;;;;;;;2.22;1.50;;;12.80;99.90;;;;;;5022481;28;20079;-82
2023/02/19 12:10:02;;;;;;;2.53;1.58;;;12.80;99.90;;;;;;5019803;28;20088;-82
2023/02/19 12:12:41;;;;;;;3.53;1.95;;;12.90;99.90;;;;;;5023460;28;20045;-83
2023/02/19 12:15:30;;;;;;;3.88;2.03;;;12.90;99.90;;;;;;5029854;28;20041;-83
2023/02/19 12:18:07;;;;;;;2.38;1.95;;;13.10;99.90;;;;;;5017116;28;20057;-84
2023/02/19 12:20:39;;;;;;;8.52;5.22;;;13.10;99.90;;;;;;5016563;28;20497;-83
2023/02/19 12:23:36;;;;;;;2.35;1.80;;;13.20;99.90;;;;;;5020424;28;20038;-82
2023/02/19 12:26:20;;;;;;;2.05;1.58;;;13.20;99.90;;;;;;5020384;28;20050;-83
2023/02/19 12:28:56;;;;;;;2.28;1.50;;;13.30;99.90;;;;;;5017310;28;20054;-82
2023/02/19 12:31:43;;;;;;;2.90;2.05;;;13.30;99.90;;;;;;5016229;28;20501;-80
2023/02/19 12:34:30;;;;;;;4.95;1.30;;;13.30;99.90;;;;;;5017054;28;20444;-83
2023/02/19 12:37:17;;;;;;;3.28;1.55;;;13.20;99.90;;;;;;5023662;28;20394;-83
2023/02/19 12:39:52;;;;;;;6.38;3.10;;;13.10;99.90;;;;;;5024225;28;20050;-83
2023/02/19 12:42:25;;;;;;;7.40;3.95;;;13.00;99.90;;;;;;5030630;28;20415;-80
2023/02/19 12:44:57;;;;;;;15.40;6.32;;;12.90;99.90;;;;;;5022624;28;20049;-84
2023/02/19 12:47:32;;;;;;;12.88;6.07;;;12.90;99.90;;;;;;5020989;28;20052;-82
2023/02/19 12:50:20;;;;;;;17.40;7.47;;;12.90;99.90;;;;;;5019906;28;20059;-82
2023/02/19 12:52:52;;;;;;;6.20;2.50;;;12.90;99.90;;;;;;5028427;28;20058;-81
2023/02/19 12:55:37;;;;;;;4.90;2.63;;;12.90;99.90;;;;;;5026098;28;20053;-81
2023/02/19 12:58:09;;;;;;;4.55;1.98;;;12.90;99.90;;;;;;5024241;28;20038;-81
2023/02/19 13:00:58;;;;;;;3.10;1.73;;;12.90;99.90;;;;;;5023669;28;21474;-81
2023/02/19 13:03:40;;;;;;;7.28;2.30;;;13.00;99.90;;;;;;5021605;28;20054;-80
2023/02/19 13:06:19;;;;;;;4.60;2.30;;;13.00;99.90;;;;;;5033441;28;20050;-81
2023/02/19 13:09:01;;;;;;;8.27;2.38;;;13.10;99.90;;;;;;5031905;28;20050;-81
2023/02/19 13:11:53;;;;;;;3.10;1.17;;;13.10;99.90;;;;;;5035924;28;20072;-81
2023/02/19 13:14:26;;;;;;;3.95;1.98;;;13.10;99.90;;;;;;5029145;28;20133;-84
2023/02/19 13:17:28;;;;;;;7.53;3.50;;;13.10;99.90;;;;;;5023219;28;20144;-80
2023/02/19 13:20:20;;;;;;;7.57;3.80;;;13.00;99.90;;;;;;4997189;28;20053;-82
2023/02/19 13:26:21;;;;;;;2.55;1.55;;;12.90;99.90;;;;;;5026373;28;20489;-82
2023/02/19 13:29:15;;;;;;;8.95;3.00;;;12.80;99.90;;;;;;5022554;28;20061;-83
2023/02/19 13:32:01;;;;;;;7.82;3.97;;;12.80;99.90;;;;;;5015171;28;20065;-83
2023/02/19 13:34:49;;;;;;;4.40;2.20;;;12.70;99.90;;;;;;5025794;28;20050;-81
2023/02/19 13:37:16;;;;;;;7.47;3.70;;;12.80;99.90;;;;;;5025282;28;20472;-82
2023/02/19 13:39:48;;;;;;;9.85;3.53;;;12.80;99.90;;;;;;5030182;28;20056;-83
2023/02/19 13:42:30;;;;;;;10.43;5.30;;;12.80;99.90;;;;;;5020924;28;20109;-81
2023/02/19 13:45:01;;;;;;;9.43;4.18;;;12.80;99.90;;;;;;5013346;28;20137;-83